Aeroporto :







RITROVATECI SU...

 
LOGIN :

Iscrizione | Disclaimer

   EN    FR    IT 

 









Sommario :    VFR   VFR Marginale   IFR   IFR Intensivo   IFR Molto Intensivo
Visibilità : 
Base nubi : 
>= 8 km
>= 3000ft
5 / 8 km
1000 / 3000 ft
1500m / 5 km
500 / 1000 ft
800 / 1500m
200 / 500 ft
< 800m
< 200 ft
Simboli :   Temporali  Nebbia  Neve Forte  Precipitazioni Forti  Vento > 20 kt






- Altitudine del aeroporto : 266 ft
- Codice IATA : MHT


KMHT - Manchester

ULTIMO METAR :
  • 131753Z 31018G26KT 10SM FEW050 M03/M16 A3020 RMK AO2 PK WND 32026/1748 SLP247 T10281161 11028 21089 53004

METARs OBSOLETI :
  • 131653Z 31012G22KT 10SM FEW050 M04/M16 A3018 RMK AO2 PK WND 31028/1600 SLP242 T10391161
  • 131553Z 33011G22KT 10SM FEW050 M04/M17 A3018 RMK AO2 SLP242 T10391167

TAF KMHT
Valido dal 13 a 18 ore il 14 a 18 ore UTC


131737Z 1318/1418 31012G21KT P6SM FEW050
FM132200 34002KT P6SM OVC250
FM141000 14002KT P6SM OVC100



MetMap, La meteo Aeronautica in un colpo d'occhio ! - Copyright ORBIFLY Dicembre 2007 - Disclaimer

ORBIFLY MET'MAP TEAM :

Programmazione e sviluppo : Alexandra Zaïnal
Concezione e sviluppo : Baudouin d'Aumeries
Co-Programmazione e sviluppo : Marc-Olivier Méhu
Supporto tecnico e logistico : Manuel Goepfert
Aiuto per la traduzione : Arnaldo La Scala

Contatto : metmap@orbifly.com




FONTI E CREDITI :

   NOAA